Time;durP1;ratioP1;P1;durP2;ratioP2;P2;SDS_P1;SDS_P2;PMS_P1;PMS_P2;Temp;Humidity;BMP_temperature;BMP_pressure;BME280_temperature;BME280_humidity;BME280_pressure;Samples;Min_cycle;Max_cycle;Signal;HPM_P1;HPM_P2
2022/10/22 00:01:27;;;;;;;11.50;4.20;;;;;;;11.43;48.73;98873.75;103098;1304;98016;-79
2022/10/22 00:03:55;;;;;;;12.50;4.40;;;;;;;11.43;48.82;98868.36;103172;1304;111248;-79
2022/10/22 00:06:23;;;;;;;12.50;4.90;;;;;;;11.44;48.83;98865.85;103134;1304;97890;-78
2022/10/22 00:08:51;;;;;;;14.40;5.00;;;;;;;11.44;48.84;98864.64;103065;1297;107496;-79
2022/10/22 00:11:23;;;;;;;15.00;4.80;;;;;;;11.43;48.92;98866.83;103066;1308;97863;-80
2022/10/22 00:13:50;;;;;;;12.70;4.20;;;;;;;11.44;48.87;98869.08;103050;1297;95295;-80
2022/10/22 00:16:18;;;;;;;19.90;5.00;;;;;;;11.43;48.89;98871.57;103265;1303;110703;-80
2022/10/22 00:18:46;;;;;;;13.10;5.00;;;;;;;11.44;48.94;98872.98;102985;1305;97972;-80
2022/10/22 00:21:14;;;;;;;16.20;5.10;;;;;;;11.44;49.02;98869.17;103158;1304;107522;-79
2022/10/22 00:23:45;;;;;;;11.90;4.30;;;;;;;11.46;49.06;98865.88;103166;1303;95164;-81
2022/10/22 00:26:12;;;;;;;13.40;5.10;;;;;;;11.46;48.96;98871.18;103139;1297;97868;-78
2022/10/22 00:28:40;;;;;;;14.30;5.00;;;;;;;11.47;49.10;98868.27;103153;1304;110112;-78
2022/10/22 00:31:11;;;;;;;16.30;5.00;;;;;;;11.49;49.19;98864.77;102898;1300;98080;-77
2022/10/22 00:33:40;;;;;;;13.40;4.80;;;;;;;11.50;49.13;98857.43;103065;1297;107492;-76
2022/10/22 00:36:08;;;;;;;13.00;5.20;;;;;;;11.51;49.11;98851.61;103082;1308;98005;-77
2022/10/22 00:38:36;;;;;;;14.50;5.60;;;;;;;11.53;49.07;98856.28;103146;1304;98000;-77
2022/10/22 00:41:07;;;;;;;13.60;4.40;;;;;;;11.54;49.24;98861.32;103166;1296;111287;-78
2022/10/22 00:43:59;;;;;;;13.70;4.40;;;;;;;11.56;49.27;98855.48;102997;1305;98038;-77
2022/10/22 00:46:28;;;;;;;12.20;5.30;;;;;;;11.58;49.25;98846.06;102986;1296;107528;-78
2022/10/22 00:49:01;;;;;;;12.20;4.50;;;;;;;11.60;49.20;98837.44;102988;1303;97761;-79
2022/10/22 00:51:34;;;;;;;13.30;5.10;;;;;;;11.60;49.29;98836.48;102931;1304;97185;-76
2022/10/22 00:54:09;;;;;;;14.70;5.10;;;;;;;11.61;49.27;98835.90;103035;1299;111143;-76
2022/10/22 00:56:37;;;;;;;11.20;4.60;;;;;;;11.60;49.12;98833.50;103063;1302;97705;-76
2022/10/22 00:59:05;;;;;;;15.70;5.80;;;;;;;11.61;49.22;98841.04;103085;1296;105631;-78
2022/10/22 01:01:33;;;;;;;17.30;4.90;;;;;;;11.62;49.30;98846.50;103056;1303;98017;-78
2022/10/22 01:04:00;;;;;;;11.90;4.60;;;;;;;11.62;49.17;98847.38;102929;1307;98033;-76
2022/10/22 01:06:34;;;;;;;17.10;5.40;;;;;;;11.62;49.19;98848.61;103170;1296;111199;-76
2022/10/22 01:09:20;;;;;;;11.90;4.40;;;;;;;11.62;49.23;98850.94;103058;1297;97887;-75
2022/10/22 01:11:53;;;;;;;17.80;4.90;;;;;;;11.62;49.31;98850.73;103009;1304;107362;-76
2022/10/22 01:14:39;;;;;;;13.00;4.80;;;;;;;11.62;49.32;98842.36;103046;1304;97877;-77
2022/10/22 01:17:40;;;;;;;15.70;4.90;;;;;;;11.61;49.20;98837.70;103023;1303;97976;-76
2022/10/22 01:20:24;;;;;;;12.80;4.70;;;;;;;11.58;49.41;98835.60;102923;1303;110251;-77
2022/10/22 01:23:12;;;;;;;16.90;4.90;;;;;;;11.58;49.30;98837.59;103129;1298;95284;-76
2022/10/22 01:25:59;;;;;;;15.10;5.30;;;;;;;11.57;49.35;98837.48;103056;1298;107572;-79
2022/10/22 01:28:59;;;;;;;12.90;4.60;;;;;;;11.56;49.30;98831.18;103053;1303;95166;-82
2022/10/22 01:31:55;;;;;;;12.80;5.30;;;;;;;11.56;49.36;98834.03;103089;1304;98018;-80
2022/10/22 01:34:26;;;;;;;14.60;4.90;;;;;;;11.55;49.27;98825.03;103093;1299;111107;-78
2022/10/22 01:36:57;;;;;;;14.90;4.70;;;;;;;11.55;49.22;98825.05;103056;1303;97904;-79
2022/10/22 01:39:29;;;;;;;12.00;4.80;;;;;;;11.54;49.38;98825.85;103101;1296;107525;-78
2022/10/22 01:41:58;;;;;;;14.50;5.00;;;;;;;11.54;49.38;98830.30;103144;1301;97979;-78
2022/10/22 01:44:35;;;;;;;10.10;4.20;;;;;;;11.54;49.46;98831.17;103102;1298;97906;-78
2022/10/22 01:47:43;;;;;;;13.90;4.80;;;;;;;11.53;49.42;98830.67;103044;1296;111231;-77
2022/10/22 01:50:41;;;;;;;13.20;5.30;;;;;;;11.53;49.43;98832.85;103072;1298;95302;-78
2022/10/22 01:53:17;;;;;;;12.80;5.00;;;;;;;11.52;49.43;98833.23;103079;1297;107408;-76
2022/10/22 01:56:08;;;;;;;12.80;4.40;;;;;;;11.53;49.47;98833.55;103056;1302;97908;-77
2022/10/22 01:59:09;;;;;;;14.90;4.80;;;;;;;11.53;49.56;98838.85;102672;1303;97893;-77
2022/10/22 02:01:58;;;;;;;15.60;4.50;;;;;;;11.53;49.48;98834.06;103015;1304;111114;-77
2022/10/22 02:04:41;;;;;;;12.60;4.80;;;;;;;11.54;49.46;98818.39;103065;1303;97908;-77
2022/10/22 02:07:14;;;;;;;11.60;4.80;;;;;;;11.55;49.58;98818.30;103016;1303;107200;-78
2022/10/22 02:09:47;;;;;;;13.40;5.20;;;;;;;11.56;49.56;98830.48;102899;1307;98004;-78
2022/10/22 02:12:21;;;;;;;11.60;4.80;;;;;;;11.56;49.48;98838.09;103156;1304;97903;-76
2022/10/22 02:14:53;;;;;;;12.10;4.70;;;;;;;11.57;49.60;98836.55;103042;1302;111052;-77
2022/10/22 02:17:30;;;;;;;11.00;4.70;;;;;;;11.58;49.65;98841.83;103067;1304;95881;-77
2022/10/22 02:20:09;;;;;;;15.80;5.00;;;;;;;11.58;49.59;98846.30;102904;1307;107186;-78
2022/10/22 02:22:38;;;;;;;16.20;5.10;;;;;;;11.57;49.69;98839.77;103088;1303;96254;-78
2022/10/22 02:25:13;;;;;;;15.10;5.10;;;;;;;11.56;49.63;98831.73;103093;1303;95114;-80
2022/10/22 02:27:54;;;;;;;15.40;4.80;;;;;;;11.55;49.58;98836.77;103063;1306;111173;-79
2022/10/22 02:30:22;;;;;;;15.30;4.90;;;;;;;11.54;49.78;98833.45;103071;1296;97946;-79
2022/10/22 02:33:11;;;;;;;17.00;5.00;;;;;;;11.53;49.65;98831.58;103080;1304;107390;-78
2022/10/22 02:35:43;;;;;;;12.50;5.20;;;;;;;11.53;49.76;98834.27;103065;1307;98448;-79
2022/10/22 02:38:16;;;;;;;10.80;5.20;;;;;;;11.52;49.73;98834.83;103077;1304;97997;-79
2022/10/22 02:40:47;;;;;;;11.70;5.20;;;;;;;11.51;49.72;98827.66;103103;1303;110872;-79
2022/10/22 02:43:17;;;;;;;12.90;4.70;;;;;;;11.51;49.76;98823.08;103092;1307;97921;-79
2022/10/22 02:45:47;;;;;;;16.50;5.90;;;;;;;11.51;49.76;98823.98;102968;1299;107464;-79
2022/10/22 02:48:18;;;;;;;13.70;5.50;;;;;;;11.49;49.71;98821.64;103087;1296;95265;-79
2022/10/22 02:50:51;;;;;;;13.00;5.40;;;;;;;11.48;49.84;98828.98;103144;1304;95349;-78
2022/10/22 02:53:22;;;;;;;14.30;5.60;;;;;;;11.47;49.82;98837.23;103176;1304;111214;-78
2022/10/22 02:55:50;;;;;;;15.70;5.20;;;;;;;11.45;49.81;98831.45;103132;1294;95152;-79
2022/10/22 02:58:18;;;;;;;17.50;5.50;;;;;;;11.45;49.88;98834.52;103077;1297;107581;-78
2022/10/22 03:00:50;;;;;;;15.00;5.40;;;;;;;11.44;49.88;98830.84;102986;1296;95654;-79
2022/10/22 03:03:18;;;;;;;15.50;5.60;;;;;;;11.42;49.93;98831.73;103106;1301;95206;-79
2022/10/22 03:05:45;;;;;;;15.50;5.70;;;;;;;11.40;49.85;98831.05;103043;1300;111118;-79
2022/10/22 03:08:13;;;;;;;14.90;5.30;;;;;;;11.37;49.80;98825.75;103130;1304;98013;-78
2022/10/22 03:10:41;;;;;;;16.90;5.60;;;;;;;11.33;49.85;98826.08;103059;1300;107287;-79
2022/10/22 03:13:08;;;;;;;17.50;5.20;;;;;;;11.30;49.86;98825.05;102997;1300;98048;-77
2022/10/22 03:15:36;;;;;;;12.40;5.30;;;;;;;11.28;49.89;98822.36;103183;1304;97889;-77
2022/10/22 03:18:04;;;;;;;17.30;5.60;;;;;;;11.26;49.91;98820.41;103066;1296;110623;-78
2022/10/22 03:20:36;;;;;;;15.80;5.40;;;;;;;11.23;49.98;98813.17;103127;1303;95881;-78
2022/10/22 03:23:04;;;;;;;14.10;5.30;;;;;;;11.21;49.92;98813.14;103105;1305;107079;-77
2022/10/22 03:25:34;;;;;;;14.80;5.20;;;;;;;11.19;49.93;98811.36;103014;1297;95256;-78
2022/10/22 03:28:08;;;;;;;18.10;5.60;;;;;;;11.17;49.98;98810.31;103107;1296;97872;-77
2022/10/22 03:30:35;;;;;;;16.20;6.00;;;;;;;11.14;50.01;98809.60;103067;1304;111166;-78
2022/10/22 03:33:03;;;;;;;17.30;6.50;;;;;;;11.12;49.99;98810.50;103106;1304;97827;-76
2022/10/22 03:35:39;;;;;;;16.40;5.40;;;;;;;11.10;50.05;98814.77;103127;1306;107195;-76
2022/10/22 03:38:07;;;;;;;15.40;5.80;;;;;;;11.08;50.04;98811.17;103105;1309;98126;-76
2022/10/22 03:40:36;;;;;;;13.90;5.20;;;;;;;11.05;50.07;98806.79;102914;1303;97979;-78
2022/10/22 03:43:04;;;;;;;17.40;6.00;;;;;;;11.02;50.11;98807.73;103056;1298;110892;-76
2022/10/22 03:45:32;;;;;;;15.70;6.10;;;;;;;10.99;50.13;98805.45;102897;1307;98004;-80
2022/10/22 03:48:03;;;;;;;14.40;6.30;;;;;;;10.99;50.11;98808.15;103038;1303;107570;-79
2022/10/22 03:50:31;;;;;;;17.00;5.90;;;;;;;10.99;50.25;98811.16;102864;1301;98048;-78
2022/10/22 03:52:58;;;;;;;16.80;6.20;;;;;;;10.99;50.23;98810.59;103071;1304;98005;-79
2022/10/22 03:55:26;;;;;;;15.80;5.70;;;;;;;11.00;50.27;98812.84;103132;1296;111163;-78
2022/10/22 03:57:54;;;;;;;13.80;5.40;;;;;;;11.01;50.24;98813.80;103168;1297;95925;-77
2022/10/22 04:00:21;;;;;;;16.90;5.40;;;;;;;11.02;50.19;98806.29;103072;1296;107183;-78
2022/10/22 04:02:50;;;;;;;13.60;5.70;;;;;;;11.01;50.21;98803.31;103136;1304;96289;-78
2022/10/22 04:05:17;;;;;;;14.10;5.40;;;;;;;11.01;50.22;98805.88;103154;1303;97881;-79
2022/10/22 04:07:45;;;;;;;15.30;5.90;;;;;;;10.99;50.20;98806.70;103050;1305;111212;-79
2022/10/22 04:10:13;;;;;;;16.70;5.60;;;;;;;10.98;50.28;98809.10;103110;1303;96228;-79
2022/10/22 04:12:41;;;;;;;16.00;5.40;;;;;;;10.97;50.27;98803.15;103069;1307;107683;-77
2022/10/22 04:15:09;;;;;;;16.40;5.90;;;;;;;10.96;50.27;98800.92;103077;1307;98003;-78
2022/10/22 04:17:36;;;;;;;15.80;5.90;;;;;;;10.94;50.34;98797.90;103142;1296;98398;-78
2022/10/22 04:20:11;;;;;;;14.70;5.50;;;;;;;10.91;50.31;98792.98;103114;1304;110729;-78
2022/10/22 04:22:39;;;;;;;19.60;6.00;;;;;;;10.90;50.40;98798.06;103158;1298;97880;-79
2022/10/22 04:25:06;;;;;;;15.00;5.90;;;;;;;10.89;50.33;98802.75;103148;1296;105793;-79
2022/10/22 04:27:35;;;;;;;17.30;6.20;;;;;;;10.86;50.38;98799.38;103099;1303;96637;-78
2022/10/22 04:30:09;;;;;;;17.30;5.80;;;;;;;10.84;50.37;98786.27;103089;1303;97973;-77
2022/10/22 04:32:37;;;;;;;16.60;5.60;;;;;;;10.82;50.45;98776.67;103105;1303;111079;-78
2022/10/22 04:35:05;;;;;;;15.90;6.00;;;;;;;10.79;50.40;98776.52;103200;1298;95136;-76
2022/10/22 04:37:33;;;;;;;17.30;6.00;;;;;;;10.77;50.49;98774.57;103185;1303;107150;-79
2022/10/22 04:40:01;;;;;;;18.30;6.00;;;;;;;10.73;50.43;98773.79;103081;1304;97983;-78
2022/10/22 04:42:33;;;;;;;16.10;6.20;;;;;;;10.70;50.42;98775.96;103069;1301;97871;-80
2022/10/22 04:45:07;;;;;;;16.20;5.30;;;;;;;10.67;50.47;98774.80;101765;1304;1831923;-79
2022/10/22 04:47:35;;;;;;;;;;;;;;;10.63;50.41;98767.99;103178;1304;96565;-79
2022/10/22 04:50:08;;;;;;;17.50;6.20;;;;;;;10.57;50.47;98763.85;102958;1305;107437;-80
2022/10/22 04:52:35;;;;;;;16.30;6.70;;;;;;;10.53;50.50;98759.73;103076;1305;98556;-78
2022/10/22 04:55:07;;;;;;;17.00;5.90;;;;;;;10.50;50.59;98759.98;103114;1310;97819;-75
2022/10/22 04:57:34;;;;;;;17.70;5.50;;;;;;;10.46;50.50;98757.96;103151;1304;111004;-81
2022/10/22 05:00:06;;;;;;;15.50;6.40;;;;;;;10.43;50.51;98758.17;103107;1303;95212;-81
2022/10/22 05:02:34;;;;;;;17.20;6.10;;;;;;;10.40;50.64;98751.11;103284;1302;107422;-80
2022/10/22 05:05:06;;;;;;;16.90;6.00;;;;;;;10.39;50.67;98747.88;103140;1303;97894;-77
2022/10/22 05:07:34;;;;;;;14.50;5.90;;;;;;;10.38;50.71;98744.05;103079;1302;95236;-79
2022/10/22 05:10:01;;;;;;;19.40;5.60;;;;;;;10.37;50.67;98743.77;103185;1303;110733;-79
2022/10/22 05:12:32;;;;;;;16.30;5.90;;;;;;;10.36;50.67;98741.32;103056;1310;97997;-79
2022/10/22 05:14:59;;;;;;;17.00;6.60;;;;;;;10.36;50.84;98741.72;103120;1303;106988;-81
2022/10/22 05:17:27;;;;;;;14.00;5.80;;;;;;;10.35;50.96;98733.59;103041;1297;95764;-77
2022/10/22 05:19:55;;;;;;;24.70;8.00;;;;;;;10.36;50.88;98731.23;103071;1302;97987;-77
2022/10/22 05:22:23;;;;;;;17.50;6.70;;;;;;;10.38;50.91;98729.88;103179;1303;111264;-77
2022/10/22 05:24:54;;;;;;;14.30;5.80;;;;;;;10.38;51.01;98729.98;103140;1304;95787;-79
2022/10/22 05:27:22;;;;;;;16.70;6.00;;;;;;;10.40;50.96;98736.20;103105;1303;107653;-77
2022/10/22 05:29:50;;;;;;;16.80;6.10;;;;;;;10.42;50.96;98739.05;103163;1296;97965;-81
2022/10/22 05:32:17;;;;;;;19.90;6.80;;;;;;;10.45;51.10;98738.17;103132;1297;97915;-81
2022/10/22 05:34:48;;;;;;;18.00;7.20;;;;;;;10.48;51.10;98734.92;103256;1303;111113;-85
2022/10/22 05:37:16;;;;;;;19.00;6.60;;;;;;;10.53;51.28;98740.42;103209;1305;97896;-82
2022/10/22 05:39:44;;;;;;;18.20;6.10;;;;;;;10.57;51.33;98739.05;103225;1297;107455;-87
2022/10/22 05:42:11;;;;;;;17.80;6.40;;;;;;;10.61;51.26;98741.20;103269;1289;97896;-79
2022/10/22 05:44:39;;;;;;;17.90;6.40;;;;;;;10.64;51.30;98743.77;103163;1303;97891;-80
2022/10/22 05:47:10;;;;;;;18.40;7.40;;;;;;;10.68;51.25;98736.38;103287;1302;111203;-81
2022/10/22 05:49:38;;;;;;;20.10;6.80;;;;;;;10.72;51.52;98729.53;103109;1294;97784;-85
2022/10/22 05:52:05;;;;;;;17.90;6.50;;;;;;;10.75;51.41;98728.95;103359;1305;107509;-82
2022/10/22 05:54:33;;;;;;;16.60;6.30;;;;;;;10.77;51.47;98730.23;103296;1305;97908;-77
2022/10/22 05:57:01;;;;;;;19.00;6.50;;;;;;;10.79;51.58;98734.48;103147;1303;98579;-81
2022/10/22 05:59:29;;;;;;;16.50;6.10;;;;;;;10.82;51.47;98741.16;103237;1303;111189;-83
2022/10/22 06:01:56;;;;;;;19.20;6.60;;;;;;;10.86;51.57;98750.27;103276;1304;96195;-87
2022/10/22 06:04:24;;;;;;;18.80;7.10;;;;;;;10.89;51.54;98757.69;103345;1303;107494;-87
2022/10/22 06:06:53;;;;;;;16.40;6.80;;;;;;;10.92;51.50;98765.41;103266;1303;98476;-88
2022/10/22 06:09:29;;;;;;;20.10;7.40;;;;;;;10.96;51.62;98783.00;103215;1305;95314;-89
2022/10/22 06:11:58;;;;;;;18.50;6.90;;;;;;;10.99;51.62;98788.24;103206;1305;111237;-83
2022/10/22 06:14:31;;;;;;;17.00;6.80;;;;;;;11.04;51.68;98790.94;103196;1298;98333;-74
2022/10/22 06:16:59;;;;;;;20.10;7.10;;;;;;;11.07;51.67;98797.55;103128;1307;107267;-81
2022/10/22 06:19:31;;;;;;;16.70;6.70;;;;;;;11.12;51.69;98801.99;104047;1298;95964;-71
2022/10/22 06:21:59;;;;;;;16.90;7.00;;;;;;;11.20;51.89;98801.41;102934;1305;97969;-75
2022/10/22 06:24:27;;;;;;;19.30;7.90;;;;;;;11.24;51.93;98799.08;104138;1286;110851;-73
2022/10/22 06:26:55;;;;;;;19.50;6.90;;;;;;;11.25;51.78;98806.44;102942;1298;97890;-72
2022/10/22 06:29:22;;;;;;;17.90;6.80;;;;;;;11.26;51.81;98811.89;102938;1304;107118;-75
2022/10/22 06:31:52;;;;;;;21.80;7.40;;;;;;;11.27;51.89;98811.29;103620;1298;95693;-74
2022/10/22 06:34:20;;;;;;;16.10;7.20;;;;;;;11.28;51.99;98815.45;103066;1306;98000;-75
2022/10/22 06:36:50;;;;;;;20.40;7.20;;;;;;;11.30;52.00;98816.20;102961;1304;111196;-76
2022/10/22 06:39:18;;;;;;;17.80;7.50;;;;;;;11.31;51.94;98816.13;103060;1303;95219;-75
2022/10/22 06:41:46;;;;;;;18.20;6.80;;;;;;;11.31;52.03;98824.11;103060;1304;105743;-75
2022/10/22 06:44:17;;;;;;;17.10;6.60;;;;;;;11.31;51.91;98821.76;103040;1294;97978;-76
2022/10/22 06:46:51;;;;;;;18.10;6.80;;;;;;;11.33;52.08;98829.96;103144;1305;97209;-75
2022/10/22 06:49:20;;;;;;;19.00;7.60;;;;;;;11.33;52.06;98836.20;103115;1305;111232;-74
2022/10/22 06:51:51;;;;;;;16.30;6.50;;;;;;;11.33;52.03;98840.25;103179;1303;97408;-75
2022/10/22 06:54:21;;;;;;;20.00;7.70;;;;;;;11.33;52.10;98845.23;102989;1306;107714;-73
2022/10/22 06:56:49;;;;;;;19.30;7.90;;;;;;;11.35;52.21;98856.30;102952;1306;98029;-75
2022/10/22 06:59:19;;;;;;;17.40;7.30;;;;;;;11.35;52.13;98856.80;103132;1303;97969;-75
2022/10/22 07:01:48;;;;;;;19.10;7.00;;;;;;;11.38;52.28;98851.99;103118;1299;110846;-77
2022/10/22 07:04:20;;;;;;;20.60;7.90;;;;;;;11.42;52.35;98850.55;103042;1308;98028;-75
2022/10/22 07:06:48;;;;;;;18.20;7.40;;;;;;;11.50;52.35;98850.61;103017;1306;107516;-74
2022/10/22 07:09:16;;;;;;;24.40;8.90;;;;;;;11.60;52.34;98848.91;103109;1297;95629;-76
2022/10/22 07:11:48;;;;;;;17.40;7.40;;;;;;;11.74;52.39;98848.94;103127;1302;96084;-77
2022/10/22 07:14:20;;;;;;;18.90;7.50;;;;;;;11.84;52.40;98841.20;103007;1305;111152;-76
2022/10/22 07:16:48;;;;;;;18.80;7.90;;;;;;;11.92;52.41;98824.70;103043;1303;97986;-76
2022/10/22 07:19:16;;;;;;;21.90;8.60;;;;;;;11.99;52.43;98820.64;103054;1303;107543;-76
2022/10/22 07:21:44;;;;;;;19.80;7.80;;;;;;;12.06;52.48;98831.78;103050;1304;97889;-76
2022/10/22 07:24:15;;;;;;;20.10;7.90;;;;;;;12.11;52.47;98833.83;103113;1303;97762;-76
2022/10/22 07:26:43;;;;;;;18.60;7.90;;;;;;;12.16;52.43;98836.28;103043;1304;111100;-80
2022/10/22 07:29:11;;;;;;;20.90;8.00;;;;;;;12.20;52.39;98837.08;102982;1313;97917;-76
2022/10/22 07:31:43;;;;;;;20.80;8.00;;;;;;;12.23;52.41;98825.39;103110;1303;107566;-75
2022/10/22 07:34:11;;;;;;;18.80;7.70;;;;;;;12.28;52.50;98823.55;103085;1296;97992;-83
2022/10/22 07:36:39;;;;;;;18.60;7.60;;;;;;;12.32;52.49;98832.98;103235;1303;97895;-79
2022/10/22 07:39:09;;;;;;;20.60;7.70;;;;;;;12.38;52.50;98833.42;102943;1313;111162;-78
2022/10/22 07:41:37;;;;;;;22.60;8.20;;;;;;;12.42;52.48;98831.17;103110;1303;95283;-78
2022/10/22 07:44:05;;;;;;;19.50;7.40;;;;;;;12.46;52.41;98835.02;103162;1298;107455;-81
2022/10/22 07:46:34;;;;;;;22.00;8.30;;;;;;;12.50;52.49;98831.13;103137;1305;97744;-76
2022/10/22 07:49:02;;;;;;;24.30;9.10;;;;;;;12.52;52.55;98833.64;103113;1305;97947;-77
2022/10/22 07:51:35;;;;;;;23.90;9.00;;;;;;;12.53;52.51;98832.85;102967;1299;111154;-78
2022/10/22 07:54:03;;;;;;;24.20;8.50;;;;;;;12.54;52.49;98830.45;103016;1303;95189;-84
2022/10/22 07:56:31;;;;;;;27.10;8.50;;;;;;;12.57;52.60;98830.08;103152;1301;107460;-76
2022/10/22 07:58:59;;;;;;;20.90;8.20;;;;;;;12.58;52.52;98832.95;103169;1303;96266;-78
2022/10/22 08:01:33;;;;;;;18.60;8.20;;;;;;;12.62;52.58;98833.02;103110;1297;97936;-75
2022/10/22 08:04:01;;;;;;;22.40;8.20;;;;;;;12.65;52.49;98824.19;103014;1293;110850;-75
2022/10/22 08:06:29;;;;;;;22.40;8.40;;;;;;;12.70;52.59;98825.73;103023;1304;97868;-76
2022/10/22 08:09:00;;;;;;;21.80;8.10;;;;;;;12.77;52.71;98828.00;103126;1299;107508;-74
2022/10/22 08:11:32;;;;;;;18.90;7.50;;;;;;;12.87;52.65;98824.52;103033;1298;97965;-74
2022/10/22 08:14:00;;;;;;;20.10;7.60;;;;;;;12.94;52.63;98832.23;103179;1301;97898;-69
2022/10/22 08:16:32;;;;;;;21.20;7.20;;;;;;;13.01;52.63;98842.13;103037;1307;113139;-75
2022/10/22 08:19:00;;;;;;;22.20;7.10;;;;;;;13.09;52.57;98850.67;103164;1296;95815;-74
2022/10/22 08:21:27;;;;;;;20.70;7.60;;;;;;;13.17;52.55;98856.48;103119;1305;107387;-73
2022/10/22 08:23:55;;;;;;;23.90;8.20;;;;;;;13.23;52.48;98855.40;103147;1303;98041;-72
2022/10/22 08:26:25;;;;;;;21.30;9.00;;;;;;;13.29;52.44;98866.29;103014;1293;95261;-71
2022/10/22 08:28:52;;;;;;;17.30;7.30;;;;;;;13.35;52.37;98867.69;103164;1303;109757;-72
2022/10/22 08:31:20;;;;;;;21.20;7.00;;;;;;;13.45;52.51;98857.02;103039;1306;97932;-74
2022/10/22 08:33:49;;;;;;;20.30;8.00;;;;;;;13.65;52.60;98849.08;103137;1297;107192;-72
2022/10/22 08:36:17;;;;;;;17.40;7.10;;;;;;;13.92;52.55;98856.30;103136;1311;98011;-72
2022/10/22 08:38:45;;;;;;;18.70;7.70;;;;;;;14.22;52.57;98854.17;103148;1304;97857;-72
2022/10/22 08:41:22;;;;;;;19.90;7.50;;;;;;;14.53;52.70;98852.45;103167;1304;111185;-72
2022/10/22 08:44:17;;;;;;;18.20;7.60;;;;;;;14.82;52.53;98865.25;103144;1305;98097;-73
2022/10/22 08:47:16;;;;;;;20.20;7.40;;;;;;;15.03;52.39;98872.83;103092;1297;107711;-72
2022/10/22 08:49:58;;;;;;;19.40;7.80;;;;;;;15.39;52.53;98870.27;103134;1303;95201;-75
2022/10/22 08:52:26;;;;;;;18.40;7.40;;;;;;;15.60;52.38;98871.66;103104;1303;97923;-76
2022/10/22 08:54:54;;;;;;;22.80;8.30;;;;;;;15.71;52.20;98869.23;102972;1307;111141;-74
2022/10/22 08:57:30;;;;;;;20.50;7.30;;;;;;;15.73;52.06;98867.31;103133;1302;97922;-73
2022/10/22 09:00:03;;;;;;;20.90;7.50;;;;;;;15.74;51.98;98865.71;103139;1296;107111;-72
2022/10/22 09:03:03;;;;;;;20.30;7.20;;;;;;;15.72;52.01;98862.52;103147;1304;97983;-73
2022/10/22 09:05:59;;;;;;;18.60;7.40;;;;;;;15.69;52.05;98857.77;103158;1303;95258;-77
2022/10/22 09:08:31;;;;;;;21.60;8.10;;;;;;;15.66;51.85;98862.85;103150;1297;110802;-76
2022/10/22 09:11:09;;;;;;;19.30;7.60;;;;;;;15.61;51.99;98849.60;103152;1302;97851;-75
2022/10/22 09:13:44;;;;;;;23.30;8.30;;;;;;;15.57;51.78;98845.15;103035;1305;108129;-74
2022/10/22 09:16:38;;;;;;;22.90;7.80;;;;;;;15.56;51.98;98837.16;103050;1306;97968;-77
2022/10/22 09:19:12;;;;;;;22.60;8.60;;;;;;;15.65;52.02;98835.98;103070;1298;99024;-77
2022/10/22 09:22:24;;;;;;;20.00;8.20;;;;;;;15.84;51.80;98837.02;103048;1301;110784;-78
2022/10/22 09:25:16;;;;;;;24.40;8.70;;;;;;;16.18;51.84;98838.48;103057;1304;95460;-85
2022/10/22 09:27:43;;;;;;;23.60;8.30;;;;;;;16.49;51.91;98837.64;103112;1305;107182;-76
2022/10/22 09:30:28;;;;;;;19.30;8.00;;;;;;;16.59;51.55;98836.95;103109;1298;97903;-81
2022/10/22 09:33:08;;;;;;;19.20;7.90;;;;;;;16.55;51.04;98829.86;103031;1299;97909;-76
2022/10/22 09:35:49;;;;;;;21.60;8.60;;;;;;;16.37;51.32;98827.14;103093;1303;110903;-77
2022/10/22 09:38:30;;;;;;;20.60;8.10;;;;;;;16.29;51.23;98827.10;103175;1299;97996;-77
2022/10/22 09:41:04;;;;;;;21.70;8.30;;;;;;;16.23;51.15;98846.47;103186;1298;107444;-78
2022/10/22 09:43:35;;;;;;;17.30;6.50;;;;;;;16.18;51.24;98864.77;103139;1299;97893;-79
2022/10/22 09:46:18;;;;;;;17.90;8.00;;;;;;;16.14;51.25;98874.19;103114;1304;99468;-78
2022/10/22 09:49:21;;;;;;;17.20;6.80;;;;;;;16.08;51.15;98872.63;102964;1305;110853;-78
2022/10/22 09:51:59;;;;;;;20.00;7.80;;;;;;;15.97;50.95;98879.36;103065;1296;97896;-79
2022/10/22 09:54:35;;;;;;;22.60;8.00;;;;;;;15.90;51.00;98886.02;103123;1306;107542;-79
2022/10/22 09:57:20;;;;;;;23.00;7.80;;;;;;;15.84;51.06;98883.34;103126;1307;98000;-80
2022/10/22 09:59:54;;;;;;;20.00;7.90;;;;;;;15.77;51.08;98880.04;103083;1297;95221;-80
2022/10/22 10:02:27;;;;;;;21.80;8.30;;;;;;;15.71;50.90;98888.34;103066;1298;111149;-76
2022/10/22 10:05:27;;;;;;;19.50;7.40;;;;;;;15.63;50.99;98880.11;102992;1298;97946;-77
2022/10/22 10:08:15;;;;;;;22.10;8.60;;;;;;;15.61;51.00;98880.63;103052;1303;107423;-77
2022/10/22 10:11:10;;;;;;;18.30;7.40;;;;;;;15.62;50.79;98875.18;103156;1298;95249;-76
2022/10/22 10:14:00;;;;;;;21.90;8.00;;;;;;;15.61;50.71;98875.63;103184;1300;95199;-74
2022/10/22 10:16:51;;;;;;;20.70;7.00;;;;;;;15.59;50.71;98880.46;103196;1296;111011;-75
2022/10/22 10:19:31;;;;;;;20.30;7.50;;;;;;;15.59;50.76;98884.48;103112;1296;95108;-77
2022/10/22 10:22:11;;;;;;;19.90;7.80;;;;;;;15.56;50.42;98876.13;103028;1296;107493;-74
2022/10/22 10:24:50;;;;;;;19.70;7.50;;;;;;;15.53;50.57;98867.36;103038;1298;97968;-76
2022/10/22 10:27:39;;;;;;;21.40;8.70;;;;;;;15.50;50.51;98867.31;103059;1297;97911;-76
2022/10/22 10:30:16;;;;;;;18.20;8.10;;;;;;;15.44;50.33;98853.38;102957;1299;111255;-77
2022/10/22 10:33:09;;;;;;;22.20;9.00;;;;;;;15.39;50.36;98841.36;103059;1288;98006;-76
2022/10/22 10:36:05;;;;;;;19.50;7.50;;;;;;;15.37;50.40;98840.31;103045;1299;106784;-75
2022/10/22 10:38:56;;;;;;;21.60;8.30;;;;;;;15.36;50.48;98847.17;103106;1300;97009;-79
2022/10/22 10:41:49;;;;;;;19.50;7.90;;;;;;;15.36;50.43;98858.45;102940;1300;98031;-76
2022/10/22 10:45:00;;;;;;;19.10;7.30;;;;;;;15.34;50.24;98856.69;102954;1307;111105;-78
2022/10/22 10:48:06;;;;;;;21.30;7.50;;;;;;;15.34;50.25;98845.43;103142;1305;95244;-76
2022/10/22 10:50:52;;;;;;;22.90;8.30;;;;;;;15.38;50.36;98843.95;103073;1302;107302;-76
2022/10/22 10:53:37;;;;;;;21.40;8.60;;;;;;;15.41;50.20;98839.34;103144;1300;95213;-75
2022/10/22 10:56:53;;;;;;;21.00;8.20;;;;;;;15.41;50.12;98840.41;103041;1300;97996;-75
2022/10/22 10:59:55;;;;;;;18.90;7.40;;;;;;;15.41;50.08;98838.06;103173;1299;111163;-75
2022/10/22 11:02:42;;;;;;;20.10;7.80;;;;;;;15.43;50.11;98840.66;103159;1302;97996;-73
2022/10/22 11:05:16;;;;;;;19.80;8.20;;;;;;;15.44;50.25;98840.30;103167;1306;107485;-74
2022/10/22 11:08:04;;;;;;;23.60;8.10;;;;;;;15.46;50.10;98826.17;103144;1299;95361;-74
2022/10/22 11:11:03;;;;;;;20.70;8.80;;;;;;;15.47;50.01;98825.01;103187;1297;95236;-76
2022/10/22 11:13:42;;;;;;;23.50;9.00;;;;;;;15.45;50.05;98816.28;103135;1299;109793;-75
2022/10/22 11:16:26;;;;;;;21.70;8.50;;;;;;;15.46;50.22;98817.55;103205;1297;97928;-75
2022/10/22 11:19:13;;;;;;;20.30;8.70;;;;;;;15.47;50.09;98811.94;103124;1303;107405;-75
2022/10/22 11:22:21;;;;;;;23.60;9.10;;;;;;;15.44;49.86;98807.81;103170;1299;97881;-75
2022/10/22 11:25:04;;;;;;;21.40;8.30;;;;;;;15.39;49.77;98813.65;103195;1290;97987;-77
2022/10/22 11:27:51;;;;;;;20.90;8.10;;;;;;;15.38;50.00;98814.30;103176;1298;111111;-75
2022/10/22 11:30:28;;;;;;;20.00;8.90;;;;;;;15.38;49.85;98817.92;103150;1306;97988;-76
2022/10/22 11:33:08;;;;;;;24.00;8.90;;;;;;;15.37;49.97;98825.84;103148;1304;107655;-76
2022/10/22 11:35:45;;;;;;;22.30;8.10;;;;;;;15.37;49.99;98826.17;103177;1305;98423;-74
2022/10/22 11:38:24;;;;;;;23.60;8.40;;;;;;;15.37;49.92;98812.27;103042;1305;98501;-75
2022/10/22 11:41:14;;;;;;;22.20;8.10;;;;;;;15.36;49.90;98811.60;103160;1310;111160;-75
2022/10/22 11:44:04;;;;;;;19.80;8.30;;;;;;;15.36;49.86;98822.75;103204;1298;96553;-75
2022/10/22 11:46:57;;;;;;;;;;;;;;;15.34;49.97;98823.60;103214;1297;107707;-75
2022/10/22 11:50:01;;;;;;;20.50;8.70;;;;;;;15.30;49.77;98824.38;103144;1304;97976;-74